Time;durP1;ratioP1;P1;durP2;ratioP2;P2;SDS_P1;SDS_P2;PMS_P1;PMS_P2;Temp;Humidity;BMP_temperature;BMP_pressure;BME280_temperature;BME280_humidity;BME280_pressure;Samples;Min_cycle;Max_cycle;Signal;HPM_P1;HPM_P2
2022/06/09 00:01:31;;;;;;;1.48;0.98;;;14.10;99.90;;;;;;5028306;28;20511;-87
2022/06/09 00:04:06;;;;;;;1.13;0.82;;;14.10;99.90;;;;;;5012994;28;20046;-85
2022/06/09 00:06:39;;;;;;;1.95;0.93;;;14.10;99.90;;;;;;5012972;28;20045;-86
2022/06/09 00:09:06;;;;;;;1.75;1.05;;;14.10;99.90;;;;;;5012960;28;20566;-85
2022/06/09 00:11:35;;;;;;;1.45;0.93;;;14.10;99.90;;;;;;5028577;28;20136;-87
2022/06/09 00:14:01;;;;;;;4.00;1.95;;;14.10;99.90;;;;;;5011696;28;20045;-85
2022/06/09 00:16:27;;;;;;;2.65;1.83;;;14.20;99.90;;;;;;5011393;28;20029;-83
2022/06/09 00:18:53;;;;;;;4.20;2.63;;;14.70;99.90;;;;;;5029648;28;20045;-84
2022/06/09 00:21:21;;;;;;;2.45;1.60;;;14.50;99.90;;;;;;5006110;28;20056;-86
2022/06/09 00:23:47;;;;;;;3.45;1.70;;;14.20;99.90;;;;;;5013090;28;20046;-88
2022/06/09 00:26:12;;;;;;;2.67;1.60;;;14.20;99.90;;;;;;5012947;28;20511;-84
2022/06/09 00:28:38;;;;;;;2.97;1.50;;;14.00;99.90;;;;;;5011171;28;20042;-86
2022/06/09 00:31:04;;;;;;;2.70;1.60;;;14.20;99.90;;;;;;5011203;28;20042;-84
2022/06/09 00:33:29;;;;;;;3.45;1.42;;;14.00;99.90;;;;;;5017213;28;20033;-85
2022/06/09 00:35:55;;;;;;;3.03;1.60;;;14.30;99.90;;;;;;5013007;28;20491;-84
2022/06/09 00:38:21;;;;;;;3.25;1.55;;;14.00;99.90;;;;;;5026907;28;20100;-84
2022/06/09 00:40:47;;;;;;;3.22;1.95;;;14.00;99.90;;;;;;5011423;28;20046;-85
2022/06/09 00:43:12;;;;;;;4.00;1.90;;;14.00;99.90;;;;;;5011552;28;20112;-85
2022/06/09 00:45:42;;;;;;;2.40;1.40;;;14.10;99.90;;;;;;5012689;28;20209;-86
2022/06/09 00:48:44;;;;;;;2.55;1.65;;;14.50;99.90;;;;;;5030893;28;20503;-84
2022/06/09 00:51:35;;;;;;;5.35;3.20;;;14.10;99.90;;;;;;4951550;29;20051;-83
2022/06/09 00:54:18;;;;;;;2.75;1.85;;;14.10;99.90;;;;;;4952236;29;20061;-82
2022/06/09 00:56:50;;;;;;;2.80;1.55;;;14.10;99.90;;;;;;4952162;29;20541;-83
2022/06/09 00:59:19;;;;;;;3.75;1.77;;;14.10;99.90;;;;;;4955408;28;20051;-85
2022/06/09 01:01:45;;;;;;;2.17;1.20;;;14.00;99.90;;;;;;4970994;28;20202;-83
2022/06/09 01:04:12;;;;;;;2.40;1.40;;;14.10;99.90;;;;;;4955440;28;20122;-84
2022/06/09 01:06:43;;;;;;;4.50;2.45;;;14.00;99.90;;;;;;4971539;28;20047;-83
2022/06/09 01:09:12;;;;;;;4.07;2.05;;;14.10;99.90;;;;;;4971444;28;20847;-83
2022/06/09 01:11:38;;;;;;;3.58;2.10;;;14.10;99.90;;;;;;4970993;28;20038;-84
2022/06/09 01:14:06;;;;;;;7.72;3.70;;;14.60;99.90;;;;;;4955490;28;20063;-84
2022/06/09 01:16:43;;;;;;;5.32;2.97;;;14.20;99.90;;;;;;4970982;28;20378;-83
2022/06/09 01:19:09;;;;;;;6.88;2.85;;;14.00;99.90;;;;;;4971262;28;20043;-82
2022/06/09 01:21:55;;;;;;;6.38;3.10;;;14.10;99.90;;;;;;4970301;28;20158;-83
2022/06/09 01:24:43;;;;;;;7.72;3.75;;;14.10;99.90;;;;;;4970852;28;20085;-83
2022/06/09 01:27:16;;;;;;;6.93;3.33;;;14.10;99.90;;;;;;4984820;28;20096;-84
2022/06/09 01:30:19;;;;;;;4.78;2.75;;;14.10;99.90;;;;;;5027089;28;20041;-84
2022/06/09 01:33:23;;;;;;;4.72;2.63;;;14.50;99.90;;;;;;4962260;28;20377;-84
2022/06/09 01:35:55;;;;;;;5.30;2.30;;;14.10;99.90;;;;;;4932615;29;20066;-83
2022/06/09 01:38:21;;;;;;;5.38;2.30;;;14.00;99.90;;;;;;4932602;29;20600;-85
2022/06/09 01:40:47;;;;;;;5.97;2.78;;;14.10;99.90;;;;;;4932756;29;20056;-85
2022/06/09 01:43:13;;;;;;;8.57;2.53;;;14.50;99.90;;;;;;4931905;29;20052;-84
2022/06/09 01:46:03;;;;;;;5.45;2.50;;;14.10;99.90;;;;;;4920411;29;20126;-84
2022/06/09 01:48:30;;;;;;;4.88;2.70;;;14.10;99.90;;;;;;4919985;29;20059;-84
2022/06/09 01:50:59;;;;;;;4.75;2.40;;;14.30;99.90;;;;;;4935930;29;20602;-84
2022/06/09 01:53:50;;;;;;;8.13;3.58;;;14.00;99.90;;;;;;4925364;29;20060;-84
2022/06/09 01:56:39;;;;;;;6.80;2.80;;;14.00;99.90;;;;;;4916905;29;20063;-85
2022/06/09 01:59:16;;;;;;;7.78;4.03;;;14.20;99.90;;;;;;4916502;29;20052;-84
2022/06/09 02:01:48;;;;;;;12.70;6.97;;;14.00;99.90;;;;;;4900760;29;20075;-85
2022/06/09 02:04:22;;;;;;;6.82;3.67;;;14.00;99.90;;;;;;4918268;29;20052;-84
2022/06/09 02:06:48;;;;;;;10.07;4.53;;;14.50;99.90;;;;;;4932155;28;20055;-85
2022/06/09 02:09:16;;;;;;;7.90;3.70;;;14.30;99.90;;;;;;4974115;28;20039;-84
2022/06/09 02:11:57;;;;;;;7.85;3.67;;;14.00;99.90;;;;;;4976675;28;20097;-84
2022/06/09 02:14:27;;;;;;;17.65;5.80;;;14.00;99.90;;;;;;5004725;28;20068;-83
2022/06/09 02:16:54;;;;;;;14.07;7.07;;;14.00;99.90;;;;;;5015292;28;20045;-85
2022/06/09 02:19:22;;;;;;;15.40;6.43;;;14.10;99.90;;;;;;5017406;28;20045;-84
2022/06/09 02:21:48;;;;;;;10.90;5.32;;;14.00;99.90;;;;;;5019406;28;20219;-85
2022/06/09 02:24:13;;;;;;;8.25;3.85;;;14.00;99.90;;;;;;5018293;28;20033;-85
2022/06/09 02:26:39;;;;;;;12.52;4.22;;;14.10;99.90;;;;;;5032280;28;20037;-85
2022/06/09 02:29:05;;;;;;;8.38;4.00;;;14.00;99.90;;;;;;5016976;28;20128;-85
2022/06/09 02:31:30;;;;;;;8.57;3.50;;;14.30;99.90;;;;;;5016457;28;20034;-85
2022/06/09 02:33:56;;;;;;;12.73;4.68;;;14.00;99.90;;;;;;5016873;28;20099;-84
2022/06/09 02:36:23;;;;;;;8.90;4.00;;;14.00;99.90;;;;;;5019932;28;20041;-85
2022/06/09 02:38:49;;;;;;;8.98;4.45;;;14.00;99.90;;;;;;4997289;28;20041;-84
2022/06/09 02:41:15;;;;;;;11.40;3.95;;;14.40;99.90;;;;;;4997444;28;20049;-84
2022/06/09 02:43:41;;;;;;;13.40;4.78;;;14.10;99.90;;;;;;5014718;28;20042;-84
2022/06/09 02:46:07;;;;;;;8.77;4.43;;;14.00;99.90;;;;;;5013914;28;20034;-84
2022/06/09 02:48:33;;;;;;;7.57;3.63;;;14.10;99.90;;;;;;4996794;28;20091;-84
2022/06/09 02:51:18;;;;;;;11.57;3.53;;;14.10;99.90;;;;;;5013286;28;20120;-83
2022/06/09 02:53:43;;;;;;;5.72;3.10;;;14.00;99.90;;;;;;5029382;28;20060;-83
2022/06/09 02:56:09;;;;;;;7.75;4.30;;;13.90;99.90;;;;;;5030210;28;20045;-84
2022/06/09 02:58:35;;;;;;;8.98;4.32;;;14.00;99.90;;;;;;5014387;28;20400;-84
2022/06/09 03:01:00;;;;;;;8.27;3.40;;;14.00;99.90;;;;;;5005755;28;20072;-83
2022/06/09 03:03:26;;;;;;;8.30;4.75;;;14.10;99.90;;;;;;5016160;28;20048;-84
2022/06/09 03:05:52;;;;;;;10.20;4.65;;;14.20;99.90;;;;;;5033925;28;20041;-85
2022/06/09 03:08:17;;;;;;;7.72;4.53;;;14.00;99.90;;;;;;5017652;28;20407;-85
2022/06/09 03:10:43;;;;;;;8.70;4.82;;;14.00;99.90;;;;;;5033809;28;20099;-84
2022/06/09 03:13:09;;;;;;;6.53;3.90;;;14.00;99.90;;;;;;5016077;28;20052;-85
2022/06/09 03:15:35;;;;;;;7.90;4.30;;;14.00;99.90;;;;;;5033816;28;20084;-84
2022/06/09 03:18:01;;;;;;;10.70;6.55;;;13.80;99.90;;;;;;5019501;28;20407;-83
2022/06/09 03:20:29;;;;;;;13.00;5.78;;;14.10;99.90;;;;;;5035499;28;20091;-84
2022/06/09 03:22:55;;;;;;;11.27;5.72;;;13.90;99.90;;;;;;5035492;28;20056;-85
2022/06/09 03:25:21;;;;;;;9.75;4.82;;;13.90;99.90;;;;;;5037697;28;20057;-84
2022/06/09 03:27:47;;;;;;;9.57;5.63;;;14.60;99.90;;;;;;5033085;28;20103;-84
2022/06/09 03:30:13;;;;;;;7.65;4.53;;;13.90;99.90;;;;;;5052576;28;20045;-84
2022/06/09 03:32:39;;;;;;;7.80;4.70;;;13.90;99.90;;;;;;5053472;28;20041;-84
2022/06/09 03:35:06;;;;;;;9.95;5.53;;;13.90;99.90;;;;;;5053447;28;20403;-84
2022/06/09 03:37:32;;;;;;;12.73;5.18;;;13.80;99.90;;;;;;5053181;28;20441;-84
2022/06/09 03:39:58;;;;;;;9.50;5.75;;;13.80;99.90;;;;;;5050030;28;20387;-85
2022/06/09 03:42:24;;;;;;;8.52;5.15;;;13.80;99.90;;;;;;5052935;28;20052;-85
2022/06/09 03:44:49;;;;;;;9.63;5.05;;;13.90;99.90;;;;;;5053267;28;20037;-85
2022/06/09 03:47:15;;;;;;;6.88;4.30;;;13.80;99.90;;;;;;5053164;28;20041;-85
2022/06/09 03:49:41;;;;;;;7.82;4.15;;;13.80;99.90;;;;;;5050139;28;20078;-84
2022/06/09 03:52:07;;;;;;;8.68;4.57;;;13.80;99.90;;;;;;5053114;28;20067;-85
2022/06/09 03:54:33;;;;;;;8.70;5.55;;;14.00;99.90;;;;;;5035129;28;20048;-85
2022/06/09 03:56:59;;;;;;;10.45;4.82;;;13.80;99.90;;;;;;5052886;28;20041;-84
2022/06/09 03:59:24;;;;;;;16.20;8.18;;;13.80;99.90;;;;;;5052555;28;20376;-84
2022/06/09 04:01:50;;;;;;;8.63;5.75;;;14.00;99.90;;;;;;5042576;28;20053;-85
2022/06/09 04:04:16;;;;;;;22.00;10.85;;;14.20;99.90;;;;;;5034942;28;20099;-85
2022/06/09 04:06:42;;;;;;;13.95;7.47;;;13.80;99.90;;;;;;5043687;28;20062;-84
2022/06/09 04:09:08;;;;;;;13.07;6.32;;;13.90;99.90;;;;;;5034927;28;20053;-86
2022/06/09 04:11:34;;;;;;;10.45;5.10;;;13.90;99.90;;;;;;5049905;28;20414;-84
2022/06/09 04:14:00;;;;;;;7.95;4.60;;;13.60;99.90;;;;;;5052548;28;20037;-84
2022/06/09 04:16:29;;;;;;;8.45;4.80;;;14.00;99.90;;;;;;5052479;28;20048;-86
2022/06/09 04:18:59;;;;;;;8.82;5.32;;;14.20;99.90;;;;;;5052614;28;20120;-85
2022/06/09 04:21:25;;;;;;;9.00;4.50;;;13.90;99.90;;;;;;5050071;28;20490;-84
2022/06/09 04:23:51;;;;;;;8.02;4.43;;;14.00;99.90;;;;;;5036224;28;20049;-84
2022/06/09 04:26:20;;;;;;;9.25;5.65;;;14.00;99.90;;;;;;5032488;28;20091;-81
2022/06/09 04:28:46;;;;;;;8.93;4.80;;;14.00;99.90;;;;;;5032714;28;20056;-84
2022/06/09 04:31:13;;;;;;;8.25;4.60;;;14.30;99.90;;;;;;5014934;28;20049;-84
2022/06/09 04:33:39;;;;;;;10.50;5.30;;;14.30;99.90;;;;;;5038708;28;20045;-84
2022/06/09 04:36:07;;;;;;;9.35;5.53;;;14.10;99.90;;;;;;5052439;28;20402;-86
2022/06/09 04:38:33;;;;;;;9.48;5.07;;;14.20;99.90;;;;;;5034678;28;20457;-84
2022/06/09 04:40:59;;;;;;;12.43;5.90;;;14.20;99.90;;;;;;5052466;28;20045;-84
2022/06/09 04:43:24;;;;;;;11.93;5.45;;;14.20;99.90;;;;;;5043958;28;20566;-84
2022/06/09 04:45:50;;;;;;;10.35;5.10;;;14.30;99.90;;;;;;5032643;28;20469;-84
2022/06/09 04:48:16;;;;;;;9.27;5.43;;;14.20;99.90;;;;;;5014770;28;20080;-83
2022/06/09 04:50:42;;;;;;;10.50;4.68;;;14.20;99.90;;;;;;5039253;28;20462;-85
2022/06/09 04:53:09;;;;;;;7.50;4.55;;;14.20;99.90;;;;;;5033352;28;20479;-84
2022/06/09 04:55:36;;;;;;;7.75;3.92;;;14.20;99.90;;;;;;5033396;28;20372;-84
2022/06/09 04:58:02;;;;;;;17.77;8.95;;;14.30;99.90;;;;;;5012934;28;20049;-85
2022/06/09 05:00:28;;;;;;;22.83;11.68;;;14.50;99.90;;;;;;5032001;28;20064;-86
2022/06/09 05:02:56;;;;;;;15.98;8.32;;;14.40;99.90;;;;;;5032357;28;20079;-85
2022/06/09 05:05:27;;;;;;;16.65;10.20;;;14.30;99.90;;;;;;5031601;28;20056;-86
2022/06/09 05:07:53;;;;;;;13.82;7.80;;;14.40;99.90;;;;;;5014545;28;20103;-85
2022/06/09 05:10:19;;;;;;;12.60;7.20;;;14.40;99.90;;;;;;5032119;28;20045;-85
2022/06/09 05:12:44;;;;;;;11.45;6.18;;;14.40;99.90;;;;;;5032105;28;20041;-85
2022/06/09 05:15:13;;;;;;;12.60;7.13;;;14.90;99.90;;;;;;5031816;28;20052;-85
2022/06/09 05:17:39;;;;;;;8.40;4.97;;;14.40;99.90;;;;;;5033686;28;20418;-85
2022/06/09 05:20:06;;;;;;;7.72;4.63;;;14.50;99.90;;;;;;5034825;28;20050;-84
2022/06/09 05:22:31;;;;;;;9.57;5.22;;;14.50;99.90;;;;;;5036078;28;20415;-84
2022/06/09 05:24:59;;;;;;;11.23;6.28;;;14.60;99.90;;;;;;5035389;28;20047;-84
2022/06/09 05:27:26;;;;;;;15.07;7.13;;;14.60;99.90;;;;;;5034548;28;20053;-84
2022/06/09 05:29:51;;;;;;;16.20;7.63;;;14.60;99.90;;;;;;5035707;28;20049;-85
2022/06/09 05:32:19;;;;;;;11.50;6.05;;;14.70;99.90;;;;;;5017914;28;20052;-84
2022/06/09 05:34:44;;;;;;;10.50;6.05;;;14.70;99.90;;;;;;5035798;28;20462;-85
2022/06/09 05:37:10;;;;;;;8.85;5.20;;;14.60;99.90;;;;;;5045606;28;20128;-84
2022/06/09 05:45:05;;;;;;;11.88;6.70;;;14.90;99.90;;;;;;5055501;28;20045;-84
2022/06/09 05:47:31;;;;;;;11.48;6.28;;;14.90;99.90;;;;;;5045033;28;20099;-84
2022/06/09 05:49:56;;;;;;;10.23;6.40;;;15.00;99.90;;;;;;5035344;28;20049;-84
2022/06/09 05:52:27;;;;;;;11.52;6.15;;;15.00;99.90;;;;;;5035448;28;20057;-84
2022/06/09 05:54:54;;;;;;;11.20;6.43;;;15.10;99.90;;;;;;5017772;28;20115;-84
2022/06/09 05:57:21;;;;;;;11.10;6.82;;;15.20;99.90;;;;;;5034882;28;20041;-84
2022/06/09 05:59:48;;;;;;;12.05;6.28;;;15.30;99.90;;;;;;5051074;28;20049;-84
2022/06/09 06:13:47;;;;;;;12.85;6.32;;;15.40;99.90;;;;;;5034409;28;20088;-92
2022/06/09 06:16:13;;;;;;;13.13;8.27;;;15.40;99.90;;;;;;5034602;28;20041;-83
2022/06/09 06:18:39;;;;;;;11.57;7.03;;;15.40;99.90;;;;;;5017178;28;20034;-84
2022/06/09 06:21:05;;;;;;;11.10;7.07;;;15.40;99.90;;;;;;5034844;28;20089;-83
2022/06/09 06:23:31;;;;;;;12.57;7.07;;;15.40;99.90;;;;;;5027787;28;20452;-84
2022/06/09 06:25:57;;;;;;;12.38;7.07;;;15.40;99.90;;;;;;5052115;28;20486;-85
2022/06/09 06:28:24;;;;;;;11.82;6.85;;;15.40;99.90;;;;;;5054094;28;20041;-85
2022/06/09 06:30:50;;;;;;;11.55;6.35;;;15.40;99.90;;;;;;5015808;28;20042;-86
2022/06/09 06:33:16;;;;;;;9.13;5.88;;;15.50;99.90;;;;;;5039493;28;20529;-85
2022/06/09 06:35:42;;;;;;;9.75;5.53;;;15.50;99.90;;;;;;5034373;28;20132;-83
2022/06/09 06:38:08;;;;;;;7.93;4.70;;;15.60;99.90;;;;;;5048215;28;20081;-84
2022/06/09 06:40:35;;;;;;;8.15;4.80;;;15.70;99.90;;;;;;5033964;28;20042;-87
2022/06/09 06:43:01;;;;;;;11.65;5.68;;;15.80;99.90;;;;;;5035778;28;20120;-86
2022/06/09 06:45:27;;;;;;;9.40;5.03;;;16.00;99.90;;;;;;5020600;28;20045;-87
2022/06/09 06:47:54;;;;;;;9.52;5.90;;;16.00;99.90;;;;;;5051377;28;20067;-88
2022/06/09 06:50:20;;;;;;;12.25;7.15;;;16.20;99.90;;;;;;5032521;28;20045;-85
2022/06/09 06:52:46;;;;;;;9.02;5.47;;;16.30;99.90;;;;;;5039173;28;20041;-86
2022/06/09 06:55:15;;;;;;;11.45;6.65;;;16.30;99.90;;;;;;5018394;28;20045;-86
2022/06/09 06:57:41;;;;;;;7.82;5.40;;;16.30;99.90;;;;;;5040453;28;20049;-89
2022/06/09 07:00:09;;;;;;;6.43;4.22;;;16.50;99.90;;;;;;5037609;28;20049;-87
2022/06/09 07:02:35;;;;;;;8.40;5.30;;;16.60;99.90;;;;;;5034748;28;20100;-88
2022/06/09 07:05:00;;;;;;;7.78;5.35;;;16.70;99.90;;;;;;5034486;28;20045;-87
2022/06/09 07:07:26;;;;;;;8.75;5.68;;;16.80;99.90;;;;;;5034378;28;20099;-87
2022/06/09 07:09:52;;;;;;;10.77;6.45;;;16.80;99.90;;;;;;5033791;28;20133;-88
2022/06/09 07:12:18;;;;;;;8.00;5.50;;;16.90;99.90;;;;;;5033777;28;20053;-90
2022/06/09 07:14:44;;;;;;;6.55;4.28;;;17.20;99.90;;;;;;5034019;28;20073;-88
2022/06/09 07:17:10;;;;;;;6.50;4.45;;;17.00;99.90;;;;;;5033927;28;20052;-88
2022/06/09 07:19:36;;;;;;;7.45;4.90;;;17.00;99.90;;;;;;5034592;28;20053;-90
2022/06/09 07:22:02;;;;;;;7.20;5.07;;;17.10;99.90;;;;;;5017099;28;20533;-88
2022/06/09 07:24:29;;;;;;;6.28;4.13;;;17.20;99.90;;;;;;5033756;28;20045;-89
2022/06/09 07:26:54;;;;;;;10.48;5.00;;;17.30;99.90;;;;;;5033651;28;20037;-90
2022/06/09 07:29:20;;;;;;;4.97;3.35;;;17.50;99.90;;;;;;5034016;28;20048;-88
2022/06/09 07:31:46;;;;;;;5.72;3.70;;;17.70;99.90;;;;;;5017165;28;20077;-87
2022/06/09 07:34:12;;;;;;;7.65;4.90;;;17.90;99.90;;;;;;5033563;28;20412;-85
2022/06/09 07:36:38;;;;;;;6.40;3.67;;;17.90;99.90;;;;;;5033487;28;20051;-86
2022/06/09 07:39:04;;;;;;;7.00;4.18;;;18.00;99.90;;;;;;5015843;28;20087;-85
2022/06/09 07:41:30;;;;;;;4.32;2.72;;;18.10;99.90;;;;;;5014736;28;20487;-86
2022/06/09 07:43:57;;;;;;;3.35;2.00;;;18.10;99.90;;;;;;5032814;28;20045;-86
2022/06/09 07:46:23;;;;;;;3.30;1.90;;;18.10;99.90;;;;;;5015750;28;20391;-86
2022/06/09 07:48:48;;;;;;;2.40;1.35;;;18.30;99.90;;;;;;5033242;28;20037;-84
2022/06/09 07:51:14;;;;;;;3.85;1.45;;;18.70;99.90;;;;;;5015459;28;20037;-85
2022/06/09 07:53:40;;;;;;;4.72;2.00;;;18.50;99.90;;;;;;5016610;28;20045;-86
2022/06/09 07:56:06;;;;;;;4.93;1.27;;;18.70;99.90;;;;;;5033232;28;20518;-84
2022/06/09 07:58:32;;;;;;;1.98;1.10;;;18.60;99.90;;;;;;5033198;28;20053;-85
2022/06/09 08:00:58;;;;;;;1.85;1.10;;;18.60;99.90;;;;;;5032490;28;20064;-85
2022/06/09 08:03:26;;;;;;;2.38;0.93;;;18.80;99.90;;;;;;5031260;28;20518;-85
2022/06/09 08:05:53;;;;;;;2.13;1.40;;;19.00;99.90;;;;;;5032971;28;20041;-84
2022/06/09 08:08:19;;;;;;;2.78;0.88;;;19.10;99.90;;;;;;5032807;28;20499;-84
2022/06/09 08:10:46;;;;;;;2.72;0.90;;;19.20;99.90;;;;;;4998834;28;20041;-85
2022/06/09 08:13:12;;;;;;;1.70;0.63;;;19.30;99.90;;;;;;5032886;28;20045;-85
2022/06/09 08:15:41;;;;;;;1.77;0.73;;;19.20;99.90;;;;;;5031695;28;20081;-84
2022/06/09 08:18:06;;;;;;;2.80;1.00;;;19.30;99.90;;;;;;5032481;28;20060;-85
2022/06/09 08:20:34;;;;;;;2.70;0.90;;;19.50;99.90;;;;;;5032722;28;20049;-84
2022/06/09 08:23:10;;;;;;;2.08;0.80;;;19.80;99.90;;;;;;5032741;28;20041;-84
2022/06/09 08:25:36;;;;;;;2.17;0.50;;;19.90;99.90;;;;;;5016193;28;20053;-85
2022/06/09 08:28:03;;;;;;;1.95;0.80;;;19.70;99.90;;;;;;5032693;28;20037;-85
2022/06/09 08:30:31;;;;;;;2.70;1.00;;;19.80;99.90;;;;;;5032569;28;20049;-86
2022/06/09 08:33:00;;;;;;;1.27;0.50;;;20.00;99.90;;;;;;5032511;28;20056;-87
2022/06/09 08:35:26;;;;;;;3.13;0.80;;;20.10;99.90;;;;;;5032387;28;20037;-85
2022/06/09 08:37:53;;;;;;;1.50;0.75;;;20.40;99.90;;;;;;5032753;28;20050;-85
2022/06/09 08:40:48;;;;;;;2.17;0.60;;;20.30;99.90;;;;;;5032435;28;20052;-84
2022/06/09 08:43:16;;;;;;;2.90;0.77;;;20.40;99.90;;;;;;5013925;28;20037;-84
2022/06/09 08:45:44;;;;;;;1.08;0.40;;;20.60;99.90;;;;;;5027490;28;20132;-85
2022/06/09 08:48:22;;;;;;;1.85;0.43;;;20.70;99.90;;;;;;5048077;28;20514;-85
2022/06/09 08:51:12;;;;;;;2.15;0.40;;;20.70;99.90;;;;;;5016066;28;20128;-85
2022/06/09 08:53:45;;;;;;;0.85;0.30;;;20.80;99.90;;;;;;5036513;28;20301;-85
2022/06/09 08:56:30;;;;;;;2.67;0.47;;;20.90;99.90;;;;;;5036226;28;20124;-85
2022/06/09 08:59:00;;;;;;;0.82;0.40;;;21.10;99.90;;;;;;5018626;28;20045;-86
2022/06/09 09:01:37;;;;;;;3.58;0.30;;;21.20;99.90;;;;;;5036169;28;20464;-85
2022/06/09 09:04:25;;;;;;;3.13;0.30;;;21.00;99.90;;;;;;5036369;28;20049;-86
2022/06/09 09:06:53;;;;;;;2.53;0.28;;;21.00;99.90;;;;;;5036554;28;20041;-86
2022/06/09 09:09:30;;;;;;;2.45;1.05;;;21.40;99.90;;;;;;5036428;28;20049;-85
2022/06/09 09:12:16;;;;;;;2.92;0.40;;;21.30;99.90;;;;;;5035083;28;20049;-85
2022/06/09 09:14:52;;;;;;;1.75;0.30;;;21.50;99.90;;;;;;5036290;28;20056;-85
2022/06/09 09:17:28;;;;;;;1.55;0.40;;;21.40;99.90;;;;;;5036094;28;20037;-87
2022/06/09 09:20:12;;;;;;;2.50;0.55;;;21.20;99.90;;;;;;5034721;28;20052;-85
2022/06/09 09:23:02;;;;;;;0.90;0.30;;;21.10;99.90;;;;;;5034947;28;20162;-87
2022/06/09 09:25:57;;;;;;;3.25;0.40;;;21.20;99.90;;;;;;5036249;28;20041;-86
2022/06/09 09:28:37;;;;;;;3.33;0.30;;;21.30;99.90;;;;;;5013956;28;20230;-87
2022/06/09 09:31:28;;;;;;;3.35;0.50;;;21.40;99.90;;;;;;4997426;28;20050;-84
2022/06/09 09:37:43;;;;;;;3.17;0.40;;;21.30;99.90;;;;;;5013788;28;20117;-85
2022/06/09 09:40:20;;;;;;;6.65;0.40;;;21.30;99.90;;;;;;4997577;28;20189;-87
2022/06/09 09:42:47;;;;;;;1.92;0.30;;;21.60;99.90;;;;;;4997297;28;20132;-86
2022/06/09 09:45:21;;;;;;;3.10;0.50;;;21.60;99.90;;;;;;4997328;28;20073;-85
2022/06/09 09:47:59;;;;;;;5.13;0.40;;;21.50;99.90;;;;;;4997090;28;20061;-85
2022/06/09 09:50:51;;;;;;;2.17;0.30;;;21.60;99.90;;;;;;4997236;28;20049;-85
2022/06/09 09:53:19;;;;;;;4.28;0.63;;;22.00;99.90;;;;;;4997377;28;20078;-85
2022/06/09 09:55:53;;;;;;;2.60;0.43;;;21.90;99.90;;;;;;4997114;28;20181;-86
2022/06/09 09:58:21;;;;;;;1.15;0.20;;;22.00;99.90;;;;;;4997358;28;20121;-85
2022/06/09 10:00:54;;;;;;;2.45;0.40;;;21.90;99.90;;;;;;4996809;28;20093;-85
2022/06/09 10:09:15;;;;;;;1.30;0.20;;;22.20;99.90;;;;;;5034108;28;20061;-85
2022/06/09 10:11:54;;;;;;;0.67;0.20;;;22.10;99.90;;;;;;5035665;28;20042;-87
2022/06/09 10:14:36;;;;;;;1.45;0.22;;;22.00;99.90;;;;;;5035073;28;20281;-88
2022/06/09 10:17:05;;;;;;;1.20;0.30;;;22.20;99.90;;;;;;5035077;28;20128;-89
2022/06/09 10:19:33;;;;;;;2.42;0.20;;;22.60;99.90;;;;;;5033709;28;20045;-86
2022/06/09 10:22:01;;;;;;;1.60;0.20;;;22.90;99.90;;;;;;5033828;28;20128;-85
2022/06/09 10:24:58;;;;;;;2.35;0.20;;;23.00;99.90;;;;;;5033643;28;20132;-86
2022/06/09 10:27:30;;;;;;;2.13;0.22;;;23.20;99.90;;;;;;5034789;28;20046;-85
2022/06/09 10:30:03;;;;;;;1.00;0.20;;;23.30;99.90;;;;;;5035345;28;20136;-89
2022/06/09 10:32:37;;;;;;;2.63;0.22;;;23.30;99.90;;;;;;5015861;28;20042;-88
2022/06/09 10:35:35;;;;;;;1.13;0.30;;;23.20;99.90;;;;;;5092326;22;20070;-88
2022/06/09 10:38:10;;;;;;;1.95;0.30;;;23.30;99.90;;;;;;5055828;28;20060;-87
2022/06/09 10:40:40;;;;;;;4.60;0.65;;;23.30;99.90;;;;;;5056177;28;20056;-86
2022/06/09 10:43:29;;;;;;;0.38;0.10;;;23.10;99.90;;;;;;5057098;28;20051;-87
2022/06/09 10:46:27;;;;;;;3.78;0.30;;;23.20;99.90;;;;;;5054443;28;20049;-90
2022/06/09 10:55:31;;;;;;;1.60;0.22;;;23.50;99.90;;;;;;5056165;28;20048;-90
2022/06/09 10:58:29;;;;;;;1.50;0.35;;;23.80;99.90;;;;;;5061334;28;20052;-90
2022/06/09 11:01:07;;;;;;;1.13;0.17;;;24.00;99.90;;;;;;4993998;28;20532;-90
2022/06/09 11:03:45;;;;;;;2.70;0.38;;;24.30;99.90;;;;;;4980140;28;20065;-89
2022/06/09 11:06:46;;;;;;;2.75;0.30;;;24.10;99.90;;;;;;4992902;28;20082;-89
2022/06/09 11:09:21;;;;;;;1.83;0.20;;;24.00;99.90;;;;;;4984345;28;20053;-88
2022/06/09 11:11:47;;;;;;;1.42;0.20;;;24.10;99.90;;;;;;5011788;28;20053;-87
2022/06/09 11:14:29;;;;;;;1.13;0.20;;;24.20;99.90;;;;;;5011811;28;20439;-90
2022/06/09 11:17:26;;;;;;;6.90;0.70;;;24.10;99.90;;;;;;5012269;28;20045;-90
2022/06/09 11:20:31;;;;;;;1.40;0.20;;;24.30;99.90;;;;;;4975985;28;20051;-88
2022/06/09 11:23:11;;;;;;;1.65;0.52;;;24.50;99.90;;;;;;4992221;28;20038;-89
2022/06/09 11:26:03;;;;;;;3.30;0.30;;;24.30;99.90;;;;;;4976258;28;20161;-88
2022/06/09 11:28:58;;;;;;;1.92;0.25;;;24.30;99.90;;;;;;4992988;28;20053;-88
2022/06/09 11:31:53;;;;;;;1.13;0.33;;;24.30;99.90;;;;;;4900519;29;20450;-90
2022/06/09 11:34:41;;;;;;;1.83;0.30;;;24.30;99.90;;;;;;4925783;29;20303;-90
2022/06/09 11:37:10;;;;;;;1.38;0.30;;;24.10;99.90;;;;;;4929911;28;20074;-88
2022/06/09 11:40:00;;;;;;;0.68;0.10;;;24.00;99.90;;;;;;4974527;28;20092;-90
2022/06/09 11:42:48;;;;;;;5.25;0.68;;;23.80;99.90;;;;;;4976265;28;20046;-90
2022/06/09 11:45:21;;;;;;;1.60;0.20;;;23.80;99.90;;;;;;4990716;28;20078;-88
2022/06/09 11:47:48;;;;;;;0.95;0.20;;;24.00;99.90;;;;;;4975649;28;20070;-86
2022/06/09 11:50:18;;;;;;;1.80;0.20;;;24.20;99.90;;;;;;4959843;28;20535;-89
2022/06/09 11:52:48;;;;;;;1.25;0.20;;;24.20;99.90;;;;;;4991775;28;20046;-89
2022/06/09 11:55:57;;;;;;;3.53;0.20;;;24.10;99.90;;;;;;4975405;28;20115;-89
2022/06/09 11:58:33;;;;;;;0.68;0.20;;;24.10;99.90;;;;;;4991313;28;20058;-88
2022/06/09 12:01:13;;;;;;;1.55;0.20;;;23.30;99.90;;;;;;5010070;28;20394;-88
2022/06/09 12:04:05;;;;;;;1.85;0.30;;;23.20;99.90;;;;;;5035072;28;20127;-88
2022/06/09 12:06:55;;;;;;;2.03;0.30;;;23.60;99.90;;;;;;5035583;28;20048;-90
2022/06/09 12:09:45;;;;;;;1.95;0.10;;;23.40;99.90;;;;;;5034784;28;20136;-89
2022/06/09 12:12:31;;;;;;;1.50;0.20;;;23.40;99.90;;;;;;5035359;28;20060;-91
2022/06/09 12:15:15;;;;;;;1.27;0.30;;;23.40;99.90;;;;;;5052544;28;20092;-87
2022/06/09 12:18:02;;;;;;;2.17;0.30;;;23.30;99.90;;;;;;5052891;28;20056;-90
2022/06/09 12:21:01;;;;;;;1.05;0.15;;;23.20;99.90;;;;;;5052324;28;20067;-88
2022/06/09 12:23:34;;;;;;;0.85;0.20;;;23.30;99.90;;;;;;5035092;28;20052;-89
2022/06/09 12:26:30;;;;;;;;;;;;;;;;;;;;;
2022/06/09 12:29:34;;;;;;;0.77;0.10;;;23.30;99.90;;;;;;5034651;28;20060;-90
2022/06/09 12:36:47;;;;;;;2.28;0.47;;;24.00;99.90;;;;;;5069684;28;20489;-89
2022/06/09 12:43:07;;;;;;;1.75;0.20;;;24.40;99.90;;;;;;5094811;22;20478;-92
2022/06/09 12:45:36;;;;;;;3.28;0.57;;;24.40;99.90;;;;;;5075137;28;20510;-89
2022/06/09 12:52:26;;;;;;;2.40;0.20;;;24.20;99.90;;;;;;5075010;28;20081;-84
2022/06/09 12:55:02;;;;;;;3.08;0.28;;;24.10;99.90;;;;;;5056178;28;20056;-88
2022/06/09 12:57:31;;;;;;;1.30;0.20;;;24.20;99.90;;;;;;5072503;28;20098;-86
2022/06/09 13:00:00;;;;;;;2.03;0.40;;;24.30;99.90;;;;;;5037408;28;20414;-87
2022/06/09 13:02:29;;;;;;;2.60;0.30;;;24.40;99.90;;;;;;5072262;28;20578;-88
2022/06/09 13:05:16;;;;;;;3.63;0.45;;;24.40;99.90;;;;;;5071977;28;20045;-87
2022/06/09 13:07:55;;;;;;;2.30;0.30;;;24.30;99.90;;;;;;5054600;28;20041;-89
2022/06/09 13:10:28;;;;;;;3.28;0.30;;;24.30;98.80;;;;;;5054008;28;20041;-85
2022/06/09 13:13:04;;;;;;;1.02;0.40;;;24.10;99.90;;;;;;5054513;28;20044;-85
2022/06/09 13:15:40;;;;;;;2.92;0.32;;;24.60;98.00;;;;;;5038151;28;20060;-86
2022/06/09 13:18:20;;;;;;;1.85;0.60;;;24.30;99.90;;;;;;5052551;28;20041;-86
2022/06/09 13:21:08;;;;;;;3.72;0.35;;;24.40;99.90;;;;;;5052954;28;20045;-87
2022/06/09 13:23:35;;;;;;;2.38;0.30;;;24.60;99.90;;;;;;5071830;28;20047;-86
2022/06/09 13:26:03;;;;;;;2.35;0.45;;;24.50;99.90;;;;;;5054003;28;20106;-85
2022/06/09 13:28:45;;;;;;;1.67;0.30;;;24.60;99.90;;;;;;5037571;28;20062;-86
2022/06/09 13:31:30;;;;;;;2.28;0.30;;;24.70;99.90;;;;;;5065394;28;20048;-86
2022/06/09 13:34:16;;;;;;;3.75;0.38;;;24.80;99.90;;;;;;5058226;28;20094;-85
2022/06/09 13:36:55;;;;;;;2.00;0.38;;;25.00;99.10;;;;;;5033992;28;20059;-85
2022/06/09 13:39:32;;;;;;;2.50;0.30;;;25.10;97.80;;;;;;5056171;28;20049;-85
2022/06/09 13:42:10;;;;;;;1.73;0.30;;;24.70;98.60;;;;;;5075881;28;20468;-91
2022/06/09 13:44:43;;;;;;;4.03;0.50;;;24.60;99.10;;;;;;5075530;28;20048;-84
2022/06/09 13:47:31;;;;;;;2.47;0.25;;;24.60;99.50;;;;;;5056712;28;20126;-84
2022/06/09 13:49:59;;;;;;;1.33;0.28;;;24.60;99.90;;;;;;5076131;28;20064;-83
2022/06/09 13:52:47;;;;;;;4.00;0.40;;;24.50;99.50;;;;;;5075186;28;20049;-83
2022/06/09 13:55:25;;;;;;;2.85;0.30;;;24.70;98.70;;;;;;5075341;28;20052;-82
2022/06/09 13:57:54;;;;;;;0.60;0.17;;;24.70;99.80;;;;;;5075748;28;20071;-83